createdAt,value
2019-03-21T07:52:39.535Z,7.90
2019-03-21T07:55:10.735Z,8.40
2019-03-21T08:10:08.687Z,10.50
2019-03-21T08:12:37.680Z,21.30
2019-03-21T08:15:09.850Z,22.30
2019-03-21T08:17:38.740Z,22.60
2019-03-21T08:20:13.059Z,23.50
2019-03-21T08:22:41.947Z,23.20
2019-03-21T08:25:11.240Z,23.70
2019-03-21T08:27:40.135Z,23.80
2019-03-21T08:30:14.969Z,23.90
2019-03-21T08:32:43.860Z,24.40
2019-03-21T08:35:12.751Z,24.90
2019-03-21T08:37:41.642Z,25.20
2019-03-21T08:40:12.408Z,25.30
2019-03-21T08:42:41.368Z,25.50
2019-03-21T08:45:11.795Z,25.50
2019-03-21T08:47:40.790Z,25.30
2019-03-21T08:50:12.495Z,25.40
2019-03-21T08:52:41.437Z,25.50
2019-03-21T08:55:11.035Z,25.50
2019-03-21T08:57:39.876Z,25.50
2019-03-21T09:00:11.740Z,25.30
2019-03-21T09:02:40.584Z,25.40
2019-03-21T09:05:10.288Z,25.60
2019-03-21T09:07:39.288Z,25.50
2019-03-21T09:10:11.026Z,25.60
2019-03-21T09:12:42.447Z,25.70
2019-03-21T09:15:11.285Z,25.60
2019-03-21T09:17:40.175Z,25.50
2019-03-21T09:20:10.996Z,25.40
2019-03-21T09:22:39.903Z,25.40
2019-03-21T09:25:09.515Z,25.60
2019-03-21T09:27:38.401Z,25.60
2019-03-21T09:30:10.261Z,25.20
2019-03-21T09:32:39.145Z,24.80
2019-03-21T09:35:12.284Z,24.70
2019-03-21T09:37:40.312Z,24.70
2019-03-21T09:40:11.866Z,24.60
2019-03-21T09:42:40.757Z,24.50
2019-03-21T09:45:10.467Z,24.30
2019-03-21T09:47:39.464Z,24.10
2019-03-21T09:50:09.501Z,24.20
2019-03-21T09:52:38.470Z,24.10
2019-03-21T09:55:08.923Z,24.00
2019-03-21T09:57:37.889Z,24.00
2019-03-21T10:00:11.081Z,24.00
2019-03-21T10:02:39.975Z,23.90
2019-03-21T10:05:09.603Z,23.60
2019-03-21T10:07:38.472Z,23.50
2019-03-21T10:10:08.182Z,23.30
2019-03-21T10:12:37.174Z,23.30
2019-03-21T10:15:07.531Z,23.60
2019-03-21T10:17:36.523Z,23.70
2019-03-21T10:20:07.182Z,23.40
2019-03-21T10:22:36.116Z,23.40
2019-03-21T10:25:06.546Z,23.60
2019-03-21T10:27:35.479Z,23.70
2019-03-21T10:30:07.275Z,23.60
2019-03-21T10:32:36.186Z,23.50
2019-03-21T10:35:06.407Z,23.10
2019-03-21T10:37:35.297Z,22.40
2019-03-21T10:40:05.932Z,21.90
2019-03-21T10:42:34.819Z,21.30
2019-03-21T10:45:05.390Z,20.60
2019-03-21T10:47:34.343Z,20.30
2019-03-21T10:50:03.335Z,19.70
2019-03-21T10:52:32.226Z,19.30
2019-03-21T10:55:01.117Z,18.80
2019-03-21T10:57:30.008Z,18.50
2019-03-21T11:00:01.494Z,18.20
2019-03-21T11:02:29.428Z,18.10
2019-03-21T11:04:58.319Z,17.90
2019-03-21T11:07:28.180Z,17.60
2019-03-21T11:09:57.127Z,17.40
2019-03-21T11:12:26.010Z,17.40
2019-03-21T11:14:54.906Z,17.60
2019-03-21T11:17:23.796Z,17.40
2019-03-21T11:19:52.688Z,17.30
2019-03-21T11:22:21.683Z,17.20
2019-03-21T11:24:50.678Z,17.10
2019-03-21T11:27:19.557Z,17.20
2019-03-21T11:29:48.454Z,17.20
2019-03-21T11:32:17.346Z,17.20
2019-03-21T11:34:46.236Z,17.10
2019-03-21T11:37:15.127Z,16.90
2019-03-21T11:39:44.018Z,16.90
2019-03-21T11:42:12.908Z,16.70
2019-03-21T11:44:41.909Z,16.80
2019-03-21T11:47:10.897Z,16.90
2019-03-21T11:49:39.786Z,16.90
2019-03-21T11:52:17.860Z,17.00
2019-03-21T11:54:39.206Z,16.80
2019-03-21T11:57:08.098Z,16.60
2019-03-21T11:59:50.525Z,16.60
2019-03-21T12:02:07.516Z,16.50
2019-03-21T12:04:36.510Z,16.50
2019-03-21T12:07:05.400Z,16.40
2019-03-21T12:09:34.393Z,16.30
2019-03-21T12:12:03.298Z,16.50
2019-03-21T12:14:32.151Z,16.60
2019-03-21T12:17:01.067Z,16.70
2019-03-21T12:19:30.062Z,16.60
2019-03-21T12:21:59.078Z,16.50
2019-03-21T12:24:28.046Z,16.50
2019-03-21T12:26:56.937Z,16.50
2019-03-21T12:29:25.932Z,16.40
2019-03-21T12:31:54.922Z,16.50
2019-03-21T12:34:23.805Z,16.50
2019-03-21T12:36:52.704Z,16.50
2019-03-21T12:39:21.594Z,16.40
2019-03-21T12:41:50.481Z,16.20
2019-03-21T12:44:19.379Z,16.30
2019-03-21T12:46:48.270Z,16.40
2019-03-21T12:49:17.260Z,16.40
2019-03-21T12:51:46.152Z,16.30
2019-03-21T12:54:15.043Z,16.20
2019-03-21T12:56:44.036Z,16.20
2019-03-21T12:59:12.925Z,16.30
2019-03-21T13:01:41.817Z,16.10
2019-03-21T13:04:10.810Z,16.10
2019-03-21T13:06:39.700Z,16.10
2019-03-21T13:09:09.946Z,16.10
2019-03-21T13:11:38.813Z,16.00
2019-03-21T13:14:07.705Z,16.10
2019-03-21T13:16:36.697Z,16.10
2019-03-21T13:19:05.691Z,16.10
2019-03-21T13:21:34.612Z,16.10
2019-03-21T13:24:03.578Z,16.10
2019-03-21T13:26:32.465Z,16.20
2019-03-21T13:29:01.356Z,16.20
2019-03-21T13:31:30.350Z,16.20
2019-03-21T13:33:59.239Z,16.10
2019-03-21T13:36:28.131Z,16.20
2019-03-21T13:38:57.124Z,16.20
2019-03-21T13:41:26.117Z,16.10
2019-03-21T13:43:55.007Z,16.10
2019-03-21T13:46:23.857Z,16.10
2019-03-21T13:48:52.789Z,16.00
2019-03-21T13:51:21.785Z,15.80
2019-03-21T13:53:50.673Z,15.80
2019-03-21T13:56:19.666Z,15.90
2019-03-21T13:58:48.557Z,15.80
2019-03-21T14:01:17.448Z,15.80
2019-03-21T14:03:46.442Z,15.80
2019-03-21T14:06:15.332Z,15.70
2019-03-21T14:08:44.222Z,15.70
2019-03-21T14:11:13.216Z,15.70
2019-03-21T14:13:42.110Z,15.60
2019-03-21T14:16:10.964Z,15.50
2019-03-21T14:18:39.888Z,15.40
2019-03-21T14:21:08.881Z,15.30
2019-03-21T14:23:43.113Z,15.10
2019-03-21T14:26:08.302Z,15.00
2019-03-21T14:28:37.193Z,15.00
2019-03-21T14:31:06.083Z,14.80
2019-03-21T14:33:34.973Z,14.70
2019-03-21T14:36:03.961Z,14.80
2019-03-21T14:38:32.857Z,14.70
2019-03-21T14:41:01.749Z,14.50
2019-03-21T14:43:30.745Z,14.40
2019-03-21T14:45:59.634Z,14.40
2019-03-21T14:48:28.525Z,14.40
2019-03-21T14:50:57.516Z,14.30
2019-03-21T14:53:29.212Z,14.20
2019-03-21T14:55:58.067Z,14.20
2019-03-21T14:58:27.057Z,14.20
2019-03-21T15:00:55.948Z,14.10
2019-03-21T15:03:24.841Z,14.10
2019-03-21T15:05:53.866Z,14.00
2019-03-21T15:08:22.723Z,14.00
2019-03-21T15:10:51.613Z,13.90
2019-03-21T15:13:20.619Z,13.80
2019-03-21T15:15:49.496Z,13.80
2019-03-21T15:18:18.390Z,13.70
2019-03-21T15:20:47.269Z,13.70
2019-03-21T15:23:16.172Z,13.60
2019-03-21T15:25:45.303Z,13.60
2019-03-21T15:28:14.973Z,13.50
2019-03-21T15:30:43.865Z,13.50
2019-03-21T15:33:12.755Z,13.50
2019-03-21T15:35:41.646Z,13.50
2019-03-21T15:38:10.537Z,13.40
2019-03-21T15:40:39.533Z,13.30
2019-03-21T15:43:08.524Z,13.30
2019-03-21T15:45:37.414Z,13.30
2019-03-21T15:48:06.409Z,13.20
2019-03-21T15:50:38.508Z,13.20
2019-03-21T15:53:09.820Z,13.10
2019-03-21T15:55:38.718Z,13.10
2019-03-21T15:58:07.712Z,13.00
2019-03-21T16:00:39.336Z,13.00
2019-03-21T16:03:10.813Z,12.90
2019-03-21T16:05:41.136Z,12.80
2019-03-21T16:08:10.966Z,12.80
2019-03-21T16:10:40.655Z,12.70
2019-03-21T16:13:09.549Z,12.70
2019-03-21T16:15:38.543Z,12.60
2019-03-21T16:28:01.462Z,12.50
2019-03-21T16:42:52.861Z,12.00
2019-03-21T16:45:21.752Z,11.10
2019-03-21T16:47:50.744Z,11.00
2019-03-21T16:50:19.653Z,10.90
2019-03-21T16:52:48.525Z,10.70
2019-03-21T16:55:17.416Z,10.70
2019-03-21T16:57:46.308Z,10.50
2019-03-21T17:00:18.176Z,10.40
2019-03-21T17:20:12.756Z,10.20
2019-03-21T21:55:21.221Z,9.50
2019-03-21T21:57:50.108Z,6.00
2019-03-21T22:00:22.228Z,5.90
2019-03-21T22:02:51.269Z,5.90
2019-03-21T22:05:21.507Z,5.90
2019-03-21T22:07:50.382Z,5.80
2019-03-21T22:10:19.943Z,5.80
2019-03-21T22:12:49.680Z,5.80
2019-03-21T22:15:19.614Z,5.80
2019-03-21T22:17:48.506Z,5.80
2019-03-21T23:07:36.664Z,5.80
2019-03-21T23:10:07.500Z,5.30
2019-03-21T23:12:37.415Z,5.30
2019-03-21T23:15:09.436Z,5.30
